Council, North Carolina
Current Conditions -  °F | °C
As of 4:55 AM on Wednesday 26 Nov 2014 (Local Time) from KEYF Reporting Station
Heavy Rain Heavy Rain  
Wind Chill: 55°   Ceiling: 100
Heat Index: 55°   Visibility: 5mi
Dew Point: 55°   Wind: 8mph
Humidity: 100%   Direction: 300°WNW
Pressure: 29.78"   Gusts: NA
Location:  34.42°N, 78.47°W
Report Text: KEYF 260955Z AUTO 30007KT 5SM +RA BKN001 BKN010 OVC013 13/13 A2978 RMK AO2 P0010 T01290129
Loading
Personal Weather Stations






























Interactive Weather Map New forecast layout! Learn more

10-Day Weather Forecast

Advertisements
Track Severe Weather on mobile